Terminal Aerodrome Forecast
Issued by NWS Austin/San Antonio, TX

Home | Current Version | Previous Version | Text Only | Print | Product List | Glossary On
Versions: 1 2 3 4 5 6 7 8 9 10 11 12 13 14 15 16 17
050
FTUS44 KEWX 281735
TAFSAT
TAF
KSAT 281735Z 2818/2924 14006KT P6SM BKN030
     FM281900 13010KT P6SM BKN040
     FM282100 09009KT P6SM VCTS BKN050CB
     FM290000 02008KT 5SM -TSRA BR OVC030CB
      TEMPO 2900/2903 VRB20G30KT 1 1/2SM TSRA BKN020CB
     FM290500 02010KT 4SM -SHRA BR OVC010
     FM291000 35008KT P6SM OVC015
     FM291700 08007KT P6SM BKN015 BKN120=

USA.gov is the U.S. government's official web portal to all federal, state and local government web resources and services.